sensor_id;sensor_type;location;lat;lon;timestamp;P1;durP1;ratioP1;P2;durP2;ratioP2
8413;SDS011;4244;48.684;9.028;2022-10-16T00:00:35;2.70;;;1.57;;
8413;SDS011;4244;48.684;9.028;2022-10-16T00:03:02;3.13;;;2.13;;
8413;SDS011;4244;48.684;9.028;2022-10-16T00:05:28;2.50;;;2.20;;
8413;SDS011;4244;48.684;9.028;2022-10-16T00:07:54;2.17;;;1.87;;
8413;SDS011;4244;48.684;9.028;2022-10-16T00:10:20;1.70;;;1.50;;
8413;SDS011;4244;48.684;9.028;2022-10-16T00:12:46;2.67;;;2.00;;
8413;SDS011;4244;48.684;9.028;2022-10-16T00:15:12;5.10;;;1.80;;
8413;SDS011;4244;48.684;9.028;2022-10-16T00:17:38;2.77;;;1.73;;
8413;SDS011;4244;48.684;9.028;2022-10-16T00:20:03;5.97;;;2.00;;
8413;SDS011;4244;48.684;9.028;2022-10-16T00:22:29;2.00;;;1.63;;
8413;SDS011;4244;48.684;9.028;2022-10-16T00:24:55;2.27;;;1.67;;
8413;SDS011;4244;48.684;9.028;2022-10-16T00:27:21;1.70;;;1.37;;
8413;SDS011;4244;48.684;9.028;2022-10-16T00:29:49;1.90;;;1.43;;
8413;SDS011;4244;48.684;9.028;2022-10-16T00:32:16;2.00;;;1.63;;
8413;SDS011;4244;48.684;9.028;2022-10-16T00:34:42;2.30;;;1.73;;
8413;SDS011;4244;48.684;9.028;2022-10-16T00:37:08;2.73;;;1.90;;
8413;SDS011;4244;48.684;9.028;2022-10-16T00:39:34;2.30;;;1.50;;
8413;SDS011;4244;48.684;9.028;2022-10-16T00:42:00;2.90;;;1.87;;
8413;SDS011;4244;48.684;9.028;2022-10-16T00:50:00;2.17;;;1.43;;
8413;SDS011;4244;48.684;9.028;2022-10-16T00:52:30;2.17;;;1.50;;
8413;SDS011;4244;48.684;9.028;2022-10-16T00:54:56;1.60;;;1.20;;
8413;SDS011;4244;48.684;9.028;2022-10-16T00:57:22;2.07;;;1.40;;
8413;SDS011;4244;48.684;9.028;2022-10-16T00:59:48;1.83;;;1.40;;
8413;SDS011;4244;48.684;9.028;2022-10-16T01:02:14;2.53;;;1.80;;
8413;SDS011;4244;48.684;9.028;2022-10-16T01:04:44;2.13;;;1.93;;
8413;SDS011;4244;48.684;9.028;2022-10-16T01:07:14;2.13;;;1.73;;
8413;SDS011;4244;48.684;9.028;2022-10-16T01:15:34;1.73;;;1.30;;
8413;SDS011;4244;48.684;9.028;2022-10-16T01:18:08;1.67;;;1.57;;
8413;SDS011;4244;48.684;9.028;2022-10-16T01:32:24;1.57;;;1.30;;
8413;SDS011;4244;48.684;9.028;2022-10-16T01:35:03;3.40;;;1.87;;
8413;SDS011;4244;48.684;9.028;2022-10-16T01:37:37;2.20;;;1.97;;
8413;SDS011;4244;48.684;9.028;2022-10-16T01:40:06;1.83;;;1.60;;
8413;SDS011;4244;48.684;9.028;2022-10-16T01:42:35;2.20;;;1.80;;
8413;SDS011;4244;48.684;9.028;2022-10-16T01:45:03;3.63;;;2.00;;
8413;SDS011;4244;48.684;9.028;2022-10-16T01:47:32;2.30;;;1.70;;
8413;SDS011;4244;48.684;9.028;2022-10-16T01:49:58;3.03;;;1.73;;
8413;SDS011;4244;48.684;9.028;2022-10-16T01:52:25;2.17;;;1.23;;
8413;SDS011;4244;48.684;9.028;2022-10-16T01:54:52;2.53;;;1.50;;
8413;SDS011;4244;48.684;9.028;2022-10-16T01:57:19;2.30;;;1.60;;
8413;SDS011;4244;48.684;9.028;2022-10-16T01:59:48;3.30;;;1.70;;
8413;SDS011;4244;48.684;9.028;2022-10-16T02:02:16;1.53;;;1.20;;
8413;SDS011;4244;48.684;9.028;2022-10-16T02:04:43;2.27;;;1.70;;
8413;SDS011;4244;48.684;9.028;2022-10-16T02:07:14;2.37;;;1.83;;
8413;SDS011;4244;48.684;9.028;2022-10-16T02:09:40;1.60;;;1.40;;
8413;SDS011;4244;48.684;9.028;2022-10-16T02:12:13;1.60;;;1.40;;
8413;SDS011;4244;48.684;9.028;2022-10-16T02:14:41;2.47;;;1.30;;
8413;SDS011;4244;48.684;9.028;2022-10-16T02:17:13;2.60;;;1.57;;
8413;SDS011;4244;48.684;9.028;2022-10-16T02:19:40;3.33;;;1.60;;
8413;SDS011;4244;48.684;9.028;2022-10-16T02:22:06;1.60;;;1.50;;
8413;SDS011;4244;48.684;9.028;2022-10-16T02:24:38;2.40;;;1.40;;
8413;SDS011;4244;48.684;9.028;2022-10-16T02:29:37;3.07;;;1.73;;
8413;SDS011;4244;48.684;9.028;2022-10-16T02:32:05;1.90;;;1.30;;
8413;SDS011;4244;48.684;9.028;2022-10-16T02:34:32;1.73;;;1.33;;
8413;SDS011;4244;48.684;9.028;2022-10-16T02:36:58;1.53;;;1.37;;
8413;SDS011;4244;48.684;9.028;2022-10-16T02:39:26;2.23;;;1.87;;
8413;SDS011;4244;48.684;9.028;2022-10-16T02:41:53;1.50;;;1.23;;
8413;SDS011;4244;48.684;9.028;2022-10-16T02:44:18;1.50;;;1.37;;
8413;SDS011;4244;48.684;9.028;2022-10-16T02:46:44;1.47;;;1.30;;
8413;SDS011;4244;48.684;9.028;2022-10-16T02:49:09;1.97;;;1.60;;
8413;SDS011;4244;48.684;9.028;2022-10-16T02:51:35;1.93;;;1.53;;
8413;SDS011;4244;48.684;9.028;2022-10-16T02:54:01;2.63;;;1.50;;
8413;SDS011;4244;48.684;9.028;2022-10-16T02:56:27;4.30;;;2.17;;
8413;SDS011;4244;48.684;9.028;2022-10-16T02:58:53;2.13;;;1.30;;
8413;SDS011;4244;48.684;9.028;2022-10-16T03:01:18;2.00;;;1.57;;
8413;SDS011;4244;48.684;9.028;2022-10-16T03:03:44;2.43;;;1.50;;
8413;SDS011;4244;48.684;9.028;2022-10-16T03:06:09;2.03;;;1.40;;
8413;SDS011;4244;48.684;9.028;2022-10-16T03:08:35;2.20;;;1.17;;
8413;SDS011;4244;48.684;9.028;2022-10-16T03:11:01;2.03;;;1.63;;
8413;SDS011;4244;48.684;9.028;2022-10-16T03:13:26;2.33;;;1.67;;
8413;SDS011;4244;48.684;9.028;2022-10-16T03:15:52;1.90;;;1.47;;
8413;SDS011;4244;48.684;9.028;2022-10-16T03:18:17;2.20;;;1.37;;
8413;SDS011;4244;48.684;9.028;2022-10-16T03:20:43;1.60;;;1.37;;
8413;SDS011;4244;48.684;9.028;2022-10-16T03:23:08;1.83;;;1.17;;
8413;SDS011;4244;48.684;9.028;2022-10-16T03:25:34;2.83;;;1.23;;
8413;SDS011;4244;48.684;9.028;2022-10-16T03:28:00;1.50;;;1.23;;
8413;SDS011;4244;48.684;9.028;2022-10-16T03:30:26;2.10;;;1.37;;
8413;SDS011;4244;48.684;9.028;2022-10-16T03:32:51;1.90;;;1.60;;
8413;SDS011;4244;48.684;9.028;2022-10-16T03:35:19;2.77;;;1.43;;
8413;SDS011;4244;48.684;9.028;2022-10-16T03:37:45;2.00;;;1.80;;
8413;SDS011;4244;48.684;9.028;2022-10-16T03:40:11;2.33;;;1.70;;
8413;SDS011;4244;48.684;9.028;2022-10-16T03:42:36;1.50;;;1.30;;
8413;SDS011;4244;48.684;9.028;2022-10-16T03:45:02;3.70;;;1.63;;
8413;SDS011;4244;48.684;9.028;2022-10-16T03:47:28;1.90;;;1.67;;
8413;SDS011;4244;48.684;9.028;2022-10-16T03:49:54;2.20;;;1.20;;
8413;SDS011;4244;48.684;9.028;2022-10-16T03:52:19;1.90;;;1.70;;
8413;SDS011;4244;48.684;9.028;2022-10-16T03:54:45;1.60;;;1.30;;
8413;SDS011;4244;48.684;9.028;2022-10-16T03:57:11;4.80;;;1.47;;
8413;SDS011;4244;48.684;9.028;2022-10-16T03:59:36;2.87;;;1.40;;
8413;SDS011;4244;48.684;9.028;2022-10-16T04:02:02;4.33;;;1.90;;
8413;SDS011;4244;48.684;9.028;2022-10-16T04:04:27;5.10;;;1.50;;
8413;SDS011;4244;48.684;9.028;2022-10-16T04:06:53;3.40;;;1.70;;
8413;SDS011;4244;48.684;9.028;2022-10-16T04:09:18;1.90;;;1.20;;
8413;SDS011;4244;48.684;9.028;2022-10-16T04:11:44;2.50;;;1.60;;
8413;SDS011;4244;48.684;9.028;2022-10-16T04:14:10;1.60;;;1.50;;
8413;SDS011;4244;48.684;9.028;2022-10-16T04:16:35;1.43;;;1.20;;
8413;SDS011;4244;48.684;9.028;2022-10-16T04:19:01;3.20;;;1.40;;
8413;SDS011;4244;48.684;9.028;2022-10-16T04:21:26;3.00;;;1.60;;
8413;SDS011;4244;48.684;9.028;2022-10-16T04:23:52;2.43;;;1.33;;
8413;SDS011;4244;48.684;9.028;2022-10-16T04:26:18;2.53;;;1.50;;
8413;SDS011;4244;48.684;9.028;2022-10-16T04:28:43;2.13;;;1.63;;
8413;SDS011;4244;48.684;9.028;2022-10-16T04:31:09;2.63;;;1.63;;
8413;SDS011;4244;48.684;9.028;2022-10-16T04:33:34;5.80;;;1.30;;
8413;SDS011;4244;48.684;9.028;2022-10-16T04:36:01;2.10;;;1.30;;
8413;SDS011;4244;48.684;9.028;2022-10-16T04:38:27;3.43;;;1.53;;
8413;SDS011;4244;48.684;9.028;2022-10-16T04:40:53;3.50;;;1.70;;
8413;SDS011;4244;48.684;9.028;2022-10-16T04:43:18;2.30;;;1.50;;
8413;SDS011;4244;48.684;9.028;2022-10-16T04:45:44;2.07;;;1.60;;
8413;SDS011;4244;48.684;9.028;2022-10-16T04:48:10;2.60;;;1.57;;
8413;SDS011;4244;48.684;9.028;2022-10-16T04:50:35;2.97;;;1.63;;
8413;SDS011;4244;48.684;9.028;2022-10-16T04:53:01;2.70;;;1.60;;
8413;SDS011;4244;48.684;9.028;2022-10-16T04:55:27;5.23;;;1.40;;
8413;SDS011;4244;48.684;9.028;2022-10-16T04:57:52;2.30;;;1.43;;
8413;SDS011;4244;48.684;9.028;2022-10-16T05:00:18;2.10;;;1.27;;
8413;SDS011;4244;48.684;9.028;2022-10-16T05:02:43;1.90;;;1.70;;
8413;SDS011;4244;48.684;9.028;2022-10-16T05:05:09;2.50;;;1.20;;
8413;SDS011;4244;48.684;9.028;2022-10-16T05:07:35;3.30;;;1.80;;
8413;SDS011;4244;48.684;9.028;2022-10-16T05:10:00;2.00;;;1.80;;
8413;SDS011;4244;48.684;9.028;2022-10-16T05:12:26;2.00;;;1.47;;
8413;SDS011;4244;48.684;9.028;2022-10-16T05:14:51;2.23;;;1.80;;
8413;SDS011;4244;48.684;9.028;2022-10-16T05:17:17;2.20;;;2.00;;
8413;SDS011;4244;48.684;9.028;2022-10-16T05:19:43;1.90;;;1.70;;
8413;SDS011;4244;48.684;9.028;2022-10-16T05:22:08;1.73;;;1.63;;
8413;SDS011;4244;48.684;9.028;2022-10-16T05:24:34;1.93;;;1.50;;
8413;SDS011;4244;48.684;9.028;2022-10-16T05:27:00;2.33;;;1.80;;
8413;SDS011;4244;48.684;9.028;2022-10-16T05:29:25;1.90;;;1.60;;
8413;SDS011;4244;48.684;9.028;2022-10-16T05:31:51;3.93;;;1.50;;
8413;SDS011;4244;48.684;9.028;2022-10-16T05:34:17;1.70;;;1.20;;
8413;SDS011;4244;48.684;9.028;2022-10-16T05:36:43;1.40;;;1.20;;
8413;SDS011;4244;48.684;9.028;2022-10-16T05:39:10;2.87;;;1.50;;
8413;SDS011;4244;48.684;9.028;2022-10-16T05:41:36;2.10;;;1.90;;
8413;SDS011;4244;48.684;9.028;2022-10-16T05:44:04;3.27;;;1.90;;
8413;SDS011;4244;48.684;9.028;2022-10-16T05:46:31;1.70;;;1.50;;
8413;SDS011;4244;48.684;9.028;2022-10-16T05:48:57;1.97;;;1.77;;
8413;SDS011;4244;48.684;9.028;2022-10-16T05:51:22;2.87;;;2.30;;
8413;SDS011;4244;48.684;9.028;2022-10-16T05:53:48;1.87;;;1.50;;
8413;SDS011;4244;48.684;9.028;2022-10-16T05:56:14;2.70;;;2.07;;
8413;SDS011;4244;48.684;9.028;2022-10-16T05:58:40;1.70;;;1.50;;
8413;SDS011;4244;48.684;9.028;2022-10-16T06:01:06;2.40;;;1.30;;
8413;SDS011;4244;48.684;9.028;2022-10-16T06:03:34;2.90;;;2.03;;
8413;SDS011;4244;48.684;9.028;2022-10-16T06:06:07;2.50;;;1.80;;
8413;SDS011;4244;48.684;9.028;2022-10-16T06:08:42;1.67;;;1.57;;
8413;SDS011;4244;48.684;9.028;2022-10-16T06:11:10;2.23;;;1.20;;
8413;SDS011;4244;48.684;9.028;2022-10-16T06:13:38;2.10;;;1.37;;
8413;SDS011;4244;48.684;9.028;2022-10-16T06:16:06;3.67;;;2.00;;
8413;SDS011;4244;48.684;9.028;2022-10-16T06:18:33;3.23;;;1.70;;
8413;SDS011;4244;48.684;9.028;2022-10-16T06:20:59;1.70;;;1.40;;
8413;SDS011;4244;48.684;9.028;2022-10-16T06:23:36;3.00;;;1.50;;
8413;SDS011;4244;48.684;9.028;2022-10-16T06:26:08;1.60;;;1.43;;
8413;SDS011;4244;48.684;9.028;2022-10-16T06:28:38;1.60;;;1.47;;
8413;SDS011;4244;48.684;9.028;2022-10-16T06:31:04;4.00;;;1.50;;
8413;SDS011;4244;48.684;9.028;2022-10-16T06:33:31;2.37;;;1.60;;
8413;SDS011;4244;48.684;9.028;2022-10-16T06:36:04;2.60;;;1.60;;
8413;SDS011;4244;48.684;9.028;2022-10-16T06:38:32;1.60;;;1.40;;
8413;SDS011;4244;48.684;9.028;2022-10-16T06:40:57;1.73;;;1.60;;
8413;SDS011;4244;48.684;9.028;2022-10-16T06:43:23;2.40;;;1.90;;
8413;SDS011;4244;48.684;9.028;2022-10-16T06:45:52;1.93;;;1.70;;
8413;SDS011;4244;48.684;9.028;2022-10-16T06:48:21;1.97;;;1.77;;
8413;SDS011;4244;48.684;9.028;2022-10-16T06:50:57;2.70;;;1.60;;
8413;SDS011;4244;48.684;9.028;2022-10-16T06:53:24;1.83;;;1.47;;
8413;SDS011;4244;48.684;9.028;2022-10-16T06:55:50;2.40;;;1.93;;
8413;SDS011;4244;48.684;9.028;2022-10-16T06:58:16;2.10;;;1.70;;
8413;SDS011;4244;48.684;9.028;2022-10-16T07:00:41;3.50;;;1.80;;
8413;SDS011;4244;48.684;9.028;2022-10-16T07:03:07;3.40;;;1.80;;
8413;SDS011;4244;48.684;9.028;2022-10-16T07:05:37;1.63;;;1.33;;
8413;SDS011;4244;48.684;9.028;2022-10-16T07:08:06;2.47;;;1.60;;
8413;SDS011;4244;48.684;9.028;2022-10-16T07:10:32;2.07;;;1.70;;
8413;SDS011;4244;48.684;9.028;2022-10-16T07:12:58;2.10;;;1.90;;
8413;SDS011;4244;48.684;9.028;2022-10-16T07:15:24;2.10;;;1.60;;
8413;SDS011;4244;48.684;9.028;2022-10-16T07:17:50;2.40;;;1.40;;
8413;SDS011;4244;48.684;9.028;2022-10-16T07:20:16;2.10;;;1.30;;
8413;SDS011;4244;48.684;9.028;2022-10-16T07:22:41;2.37;;;1.80;;
8413;SDS011;4244;48.684;9.028;2022-10-16T07:25:07;1.83;;;1.60;;
8413;SDS011;4244;48.684;9.028;2022-10-16T07:27:33;2.00;;;1.47;;
8413;SDS011;4244;48.684;9.028;2022-10-16T07:29:59;1.60;;;1.47;;
8413;SDS011;4244;48.684;9.028;2022-10-16T07:32:24;2.00;;;1.53;;
8413;SDS011;4244;48.684;9.028;2022-10-16T07:34:50;2.30;;;1.90;;
8413;SDS011;4244;48.684;9.028;2022-10-16T07:37:16;2.27;;;1.77;;
8413;SDS011;4244;48.684;9.028;2022-10-16T07:39:42;3.43;;;1.57;;
8413;SDS011;4244;48.684;9.028;2022-10-16T07:42:08;3.37;;;1.90;;
8413;SDS011;4244;48.684;9.028;2022-10-16T07:44:33;3.00;;;2.07;;
8413;SDS011;4244;48.684;9.028;2022-10-16T07:46:59;2.60;;;1.60;;
8413;SDS011;4244;48.684;9.028;2022-10-16T07:49:25;3.87;;;1.57;;
8413;SDS011;4244;48.684;9.028;2022-10-16T07:51:50;1.80;;;1.33;;
8413;SDS011;4244;48.684;9.028;2022-10-16T07:54:16;2.70;;;1.60;;
8413;SDS011;4244;48.684;9.028;2022-10-16T07:56:42;2.00;;;1.37;;
8413;SDS011;4244;48.684;9.028;2022-10-16T07:59:07;2.70;;;1.57;;
8413;SDS011;4244;48.684;9.028;2022-10-16T08:01:33;2.90;;;2.27;;
8413;SDS011;4244;48.684;9.028;2022-10-16T08:03:58;1.90;;;1.70;;
8413;SDS011;4244;48.684;9.028;2022-10-16T08:06:24;3.40;;;1.70;;
8413;SDS011;4244;48.684;9.028;2022-10-16T08:08:50;3.70;;;1.90;;
8413;SDS011;4244;48.684;9.028;2022-10-16T08:11:16;2.27;;;1.73;;
8413;SDS011;4244;48.684;9.028;2022-10-16T08:13:41;2.00;;;1.80;;
8413;SDS011;4244;48.684;9.028;2022-10-16T08:16:07;1.63;;;1.43;;
8413;SDS011;4244;48.684;9.028;2022-10-16T08:18:34;2.57;;;1.83;;
8413;SDS011;4244;48.684;9.028;2022-10-16T08:21:00;3.10;;;1.80;;
8413;SDS011;4244;48.684;9.028;2022-10-16T08:23:26;2.03;;;1.80;;
8413;SDS011;4244;48.684;9.028;2022-10-16T08:25:53;4.33;;;1.77;;
8413;SDS011;4244;48.684;9.028;2022-10-16T08:28:19;2.17;;;1.70;;
8413;SDS011;4244;48.684;9.028;2022-10-16T08:30:45;2.13;;;1.27;;
8413;SDS011;4244;48.684;9.028;2022-10-16T08:33:11;2.00;;;1.77;;
8413;SDS011;4244;48.684;9.028;2022-10-16T08:35:36;2.63;;;1.40;;
8413;SDS011;4244;48.684;9.028;2022-10-16T08:38:03;2.30;;;1.83;;
8413;SDS011;4244;48.684;9.028;2022-10-16T08:40:29;1.63;;;1.40;;
8413;SDS011;4244;48.684;9.028;2022-10-16T08:48:42;4.77;;;1.90;;
8413;SDS011;4244;48.684;9.028;2022-10-16T08:51:11;3.53;;;1.90;;
8413;SDS011;4244;48.684;9.028;2022-10-16T08:56:40;4.77;;;1.80;;
8413;SDS011;4244;48.684;9.028;2022-10-16T08:59:09;2.20;;;1.63;;
8413;SDS011;4244;48.684;9.028;2022-10-16T09:01:40;3.67;;;1.40;;
8413;SDS011;4244;48.684;9.028;2022-10-16T09:12:39;3.53;;;2.33;;
8413;SDS011;4244;48.684;9.028;2022-10-16T09:20:38;4.33;;;2.10;;
8413;SDS011;4244;48.684;9.028;2022-10-16T09:23:10;1.77;;;1.33;;
8413;SDS011;4244;48.684;9.028;2022-10-16T09:25:39;3.10;;;2.10;;
8413;SDS011;4244;48.684;9.028;2022-10-16T09:28:08;2.67;;;1.50;;
8413;SDS011;4244;48.684;9.028;2022-10-16T09:30:35;2.27;;;1.67;;
8413;SDS011;4244;48.684;9.028;2022-10-16T09:33:01;2.20;;;1.60;;
8413;SDS011;4244;48.684;9.028;2022-10-16T09:35:31;2.23;;;1.50;;
8413;SDS011;4244;48.684;9.028;2022-10-16T09:38:08;2.60;;;1.53;;
8413;SDS011;4244;48.684;9.028;2022-10-16T09:40:37;3.10;;;1.70;;
8413;SDS011;4244;48.684;9.028;2022-10-16T09:48:23;1.50;;;1.40;;
8413;SDS011;4244;48.684;9.028;2022-10-16T09:50:57;2.20;;;1.57;;
8413;SDS011;4244;48.684;9.028;2022-10-16T09:53:25;5.03;;;3.00;;
8413;SDS011;4244;48.684;9.028;2022-10-16T09:56:02;2.93;;;1.90;;
8413;SDS011;4244;48.684;9.028;2022-10-16T09:58:30;5.80;;;2.10;;
8413;SDS011;4244;48.684;9.028;2022-10-16T10:00:57;2.60;;;1.70;;
8413;SDS011;4244;48.684;9.028;2022-10-16T10:03:30;2.57;;;1.90;;
8413;SDS011;4244;48.684;9.028;2022-10-16T10:08:55;5.00;;;1.50;;
8413;SDS011;4244;48.684;9.028;2022-10-16T10:11:40;3.43;;;1.60;;
8413;SDS011;4244;48.684;9.028;2022-10-16T10:14:56;2.30;;;2.07;;
8413;SDS011;4244;48.684;9.028;2022-10-16T10:17:12;2.17;;;1.70;;
8413;SDS011;4244;48.684;9.028;2022-10-16T10:22:56;3.50;;;1.90;;
8413;SDS011;4244;48.684;9.028;2022-10-16T10:35:22;3.53;;;1.67;;
8413;SDS011;4244;48.684;9.028;2022-10-16T10:46:23;3.63;;;1.60;;
8413;SDS011;4244;48.684;9.028;2022-10-16T10:52:22;8.17;;;2.00;;
8413;SDS011;4244;48.684;9.028;2022-10-16T11:00:23;5.07;;;2.40;;
8413;SDS011;4244;48.684;9.028;2022-10-16T11:11:30;5.20;;;1.63;;
8413;SDS011;4244;48.684;9.028;2022-10-16T11:16:57;3.57;;;1.90;;
8413;SDS011;4244;48.684;9.028;2022-10-16T11:22:22;3.13;;;2.03;;
8413;SDS011;4244;48.684;9.028;2022-10-16T11:24:55;2.13;;;1.77;;
8413;SDS011;4244;48.684;9.028;2022-10-16T11:27:38;2.67;;;1.80;;
8413;SDS011;4244;48.684;9.028;2022-10-16T11:30:20;2.10;;;1.60;;
8413;SDS011;4244;48.684;9.028;2022-10-16T11:35:19;2.63;;;1.60;;
8413;SDS011;4244;48.684;9.028;2022-10-16T11:37:48;3.50;;;1.80;;
8413;SDS011;4244;48.684;9.028;2022-10-16T11:40:30;1.93;;;1.60;;
8413;SDS011;4244;48.684;9.028;2022-10-16T11:43:13;2.10;;;1.90;;
8413;SDS011;4244;48.684;9.028;2022-10-16T11:45:43;3.67;;;1.77;;
8413;SDS011;4244;48.684;9.028;2022-10-16T11:48:18;1.80;;;1.70;;
8413;SDS011;4244;48.684;9.028;2022-10-16T11:51:07;2.10;;;1.90;;
8413;SDS011;4244;48.684;9.028;2022-10-16T11:56:43;2.57;;;1.60;;
8413;SDS011;4244;48.684;9.028;2022-10-16T11:59:14;1.53;;;1.43;;
8413;SDS011;4244;48.684;9.028;2022-10-16T12:01:57;1.70;;;1.60;;
8413;SDS011;4244;48.684;9.028;2022-10-16T12:04:46;1.93;;;1.73;;
8413;SDS011;4244;48.684;9.028;2022-10-16T12:07:15;2.93;;;1.90;;
8413;SDS011;4244;48.684;9.028;2022-10-16T12:09:44;2.87;;;1.70;;
8413;SDS011;4244;48.684;9.028;2022-10-16T12:17:53;1.70;;;1.60;;
8413;SDS011;4244;48.684;9.028;2022-10-16T12:22:54;1.90;;;1.70;;
8413;SDS011;4244;48.684;9.028;2022-10-16T12:25:32;2.40;;;1.90;;
8413;SDS011;4244;48.684;9.028;2022-10-16T12:30:32;3.10;;;2.00;;
8413;SDS011;4244;48.684;9.028;2022-10-16T12:33:20;1.70;;;1.50;;
8413;SDS011;4244;48.684;9.028;2022-10-16T12:35:47;2.13;;;1.90;;
8413;SDS011;4244;48.684;9.028;2022-10-16T12:40:59;4.20;;;1.73;;
8413;SDS011;4244;48.684;9.028;2022-10-16T12:43:34;1.73;;;1.63;;
8413;SDS011;4244;48.684;9.028;2022-10-16T12:48:39;2.40;;;1.93;;
8413;SDS011;4244;48.684;9.028;2022-10-16T12:51:33;1.80;;;1.70;;
8413;SDS011;4244;48.684;9.028;2022-10-16T12:53:59;1.73;;;1.63;;
8413;SDS011;4244;48.684;9.028;2022-10-16T12:56:38;1.93;;;1.63;;
8413;SDS011;4244;48.684;9.028;2022-10-16T13:02:06;2.50;;;2.30;;
8413;SDS011;4244;48.684;9.028;2022-10-16T13:07:29;1.90;;;1.70;;
8413;SDS011;4244;48.684;9.028;2022-10-16T13:21:34;2.40;;;1.77;;
8413;SDS011;4244;48.684;9.028;2022-10-16T13:27:25;4.20;;;1.90;;
8413;SDS011;4244;48.684;9.028;2022-10-16T13:32:44;2.43;;;1.80;;
8413;SDS011;4244;48.684;9.028;2022-10-16T13:35:22;2.07;;;1.87;;
8413;SDS011;4244;48.684;9.028;2022-10-16T13:37:49;2.27;;;1.97;;
8413;SDS011;4244;48.684;9.028;2022-10-16T13:40:20;2.43;;;1.73;;
8413;SDS011;4244;48.684;9.028;2022-10-16T13:42:47;2.13;;;1.70;;
8413;SDS011;4244;48.684;9.028;2022-10-16T13:45:17;2.10;;;1.77;;
8413;SDS011;4244;48.684;9.028;2022-10-16T13:47:44;2.73;;;1.97;;
8413;SDS011;4244;48.684;9.028;2022-10-16T13:50:13;3.47;;;2.03;;
8413;SDS011;4244;48.684;9.028;2022-10-16T13:52:43;2.47;;;2.20;;
8413;SDS011;4244;48.684;9.028;2022-10-16T13:55:18;2.27;;;1.83;;
8413;SDS011;4244;48.684;9.028;2022-10-16T13:57:44;2.17;;;1.97;;
8413;SDS011;4244;48.684;9.028;2022-10-16T14:00:20;2.77;;;2.27;;
8413;SDS011;4244;48.684;9.028;2022-10-16T14:02:50;2.03;;;1.73;;
8413;SDS011;4244;48.684;9.028;2022-10-16T14:05:27;1.73;;;1.63;;
8413;SDS011;4244;48.684;9.028;2022-10-16T14:07:55;2.00;;;1.80;;
8413;SDS011;4244;48.684;9.028;2022-10-16T14:10:31;2.57;;;2.07;;
8413;SDS011;4244;48.684;9.028;2022-10-16T14:13:05;2.57;;;2.10;;
8413;SDS011;4244;48.684;9.028;2022-10-16T14:15:32;2.60;;;2.33;;
8413;SDS011;4244;48.684;9.028;2022-10-16T14:17:59;2.53;;;1.90;;
8413;SDS011;4244;48.684;9.028;2022-10-16T14:20:29;2.33;;;1.90;;
8413;SDS011;4244;48.684;9.028;2022-10-16T14:23:01;1.93;;;1.77;;
8413;SDS011;4244;48.684;9.028;2022-10-16T14:25:46;1.77;;;1.63;;
8413;SDS011;4244;48.684;9.028;2022-10-16T14:28:16;1.87;;;1.70;;
8413;SDS011;4244;48.684;9.028;2022-10-16T14:30:51;2.73;;;2.00;;
8413;SDS011;4244;48.684;9.028;2022-10-16T14:36:02;2.50;;;2.30;;
8413;SDS011;4244;48.684;9.028;2022-10-16T14:38:30;2.83;;;1.93;;
8413;SDS011;4244;48.684;9.028;2022-10-16T14:40:57;2.10;;;1.90;;
8413;SDS011;4244;48.684;9.028;2022-10-16T14:43:33;3.00;;;2.23;;
8413;SDS011;4244;48.684;9.028;2022-10-16T14:45:59;2.20;;;2.00;;
8413;SDS011;4244;48.684;9.028;2022-10-16T14:48:26;2.40;;;2.20;;
8413;SDS011;4244;48.684;9.028;2022-10-16T14:50:52;2.10;;;1.70;;
8413;SDS011;4244;48.684;9.028;2022-10-16T14:53:18;2.30;;;2.10;;
8413;SDS011;4244;48.684;9.028;2022-10-16T14:55:44;2.23;;;1.67;;
8413;SDS011;4244;48.684;9.028;2022-10-16T14:58:14;1.77;;;1.63;;
8413;SDS011;4244;48.684;9.028;2022-10-16T15:00:42;2.53;;;2.23;;
8413;SDS011;4244;48.684;9.028;2022-10-16T15:03:07;2.10;;;1.53;;
8413;SDS011;4244;48.684;9.028;2022-10-16T15:05:33;4.33;;;2.07;;
8413;SDS011;4244;48.684;9.028;2022-10-16T15:07:59;2.13;;;1.93;;
8413;SDS011;4244;48.684;9.028;2022-10-16T15:10:25;4.07;;;2.00;;
8413;SDS011;4244;48.684;9.028;2022-10-16T15:12:53;2.47;;;1.87;;
8413;SDS011;4244;48.684;9.028;2022-10-16T15:17:47;2.93;;;2.20;;
8413;SDS011;4244;48.684;9.028;2022-10-16T15:20:18;2.27;;;2.00;;
8413;SDS011;4244;48.684;9.028;2022-10-16T15:22:44;3.43;;;2.20;;
8413;SDS011;4244;48.684;9.028;2022-10-16T15:27:42;2.67;;;2.17;;
8413;SDS011;4244;48.684;9.028;2022-10-16T15:30:07;4.60;;;2.30;;
8413;SDS011;4244;48.684;9.028;2022-10-16T15:32:34;2.33;;;2.03;;
8413;SDS011;4244;48.684;9.028;2022-10-16T15:35:00;2.70;;;2.30;;
8413;SDS011;4244;48.684;9.028;2022-10-16T15:37:25;3.43;;;2.20;;
8413;SDS011;4244;48.684;9.028;2022-10-16T15:39:51;2.60;;;2.27;;
8413;SDS011;4244;48.684;9.028;2022-10-16T15:42:16;3.00;;;2.70;;
8413;SDS011;4244;48.684;9.028;2022-10-16T15:44:42;4.93;;;2.63;;
8413;SDS011;4244;48.684;9.028;2022-10-16T15:47:08;3.80;;;2.20;;
8413;SDS011;4244;48.684;9.028;2022-10-16T15:49:34;3.70;;;1.80;;
8413;SDS011;4244;48.684;9.028;2022-10-16T15:52:00;2.30;;;2.10;;
8413;SDS011;4244;48.684;9.028;2022-10-16T15:54:25;2.23;;;2.03;;
8413;SDS011;4244;48.684;9.028;2022-10-16T15:56:51;3.10;;;2.33;;
8413;SDS011;4244;48.684;9.028;2022-10-16T15:59:17;2.90;;;2.50;;
8413;SDS011;4244;48.684;9.028;2022-10-16T16:01:42;2.60;;;2.37;;
8413;SDS011;4244;48.684;9.028;2022-10-16T16:04:08;2.80;;;2.33;;
8413;SDS011;4244;48.684;9.028;2022-10-16T16:06:33;2.87;;;2.67;;
8413;SDS011;4244;48.684;9.028;2022-10-16T16:09:04;3.13;;;2.60;;
8413;SDS011;4244;48.684;9.028;2022-10-16T16:11:29;2.83;;;2.40;;
8413;SDS011;4244;48.684;9.028;2022-10-16T16:13:56;2.70;;;2.27;;
8413;SDS011;4244;48.684;9.028;2022-10-16T16:16:22;7.00;;;2.60;;
8413;SDS011;4244;48.684;9.028;2022-10-16T16:18:48;3.23;;;2.63;;
8413;SDS011;4244;48.684;9.028;2022-10-16T16:21:17;3.40;;;2.90;;
8413;SDS011;4244;48.684;9.028;2022-10-16T16:23:43;3.33;;;2.43;;
8413;SDS011;4244;48.684;9.028;2022-10-16T16:26:25;2.50;;;2.30;;
8413;SDS011;4244;48.684;9.028;2022-10-16T16:28:53;2.93;;;2.73;;
8413;SDS011;4244;48.684;9.028;2022-10-16T16:31:19;3.70;;;2.90;;
8413;SDS011;4244;48.684;9.028;2022-10-16T16:33:46;3.53;;;2.50;;
8413;SDS011;4244;48.684;9.028;2022-10-16T16:36:12;3.10;;;2.60;;
8413;SDS011;4244;48.684;9.028;2022-10-16T16:38:37;3.87;;;2.70;;
8413;SDS011;4244;48.684;9.028;2022-10-16T16:41:19;2.70;;;2.37;;
8413;SDS011;4244;48.684;9.028;2022-10-16T16:43:46;3.40;;;2.40;;
8413;SDS011;4244;48.684;9.028;2022-10-16T16:46:16;3.90;;;3.13;;
8413;SDS011;4244;48.684;9.028;2022-10-16T16:48:41;4.20;;;3.10;;
8413;SDS011;4244;48.684;9.028;2022-10-16T16:51:08;3.23;;;2.47;;
8413;SDS011;4244;48.684;9.028;2022-10-16T16:53:41;7.17;;;2.90;;
8413;SDS011;4244;48.684;9.028;2022-10-16T16:56:07;2.80;;;2.57;;
8413;SDS011;4244;48.684;9.028;2022-10-16T16:58:34;4.07;;;2.73;;
8413;SDS011;4244;48.684;9.028;2022-10-16T17:01:00;3.00;;;2.80;;
8413;SDS011;4244;48.684;9.028;2022-10-16T17:03:33;3.20;;;2.63;;
8413;SDS011;4244;48.684;9.028;2022-10-16T17:06:04;4.20;;;2.53;;
8413;SDS011;4244;48.684;9.028;2022-10-16T17:08:31;3.40;;;2.80;;
8413;SDS011;4244;48.684;9.028;2022-10-16T17:10:58;3.10;;;2.67;;
8413;SDS011;4244;48.684;9.028;2022-10-16T17:13:24;3.03;;;2.70;;
8413;SDS011;4244;48.684;9.028;2022-10-16T17:15:51;3.00;;;2.70;;
8413;SDS011;4244;48.684;9.028;2022-10-16T17:18:18;2.67;;;2.47;;
8413;SDS011;4244;48.684;9.028;2022-10-16T17:20:44;3.20;;;2.77;;
8413;SDS011;4244;48.684;9.028;2022-10-16T17:23:10;3.70;;;3.40;;
8413;SDS011;4244;48.684;9.028;2022-10-16T17:25:37;4.00;;;3.43;;
8413;SDS011;4244;48.684;9.028;2022-10-16T17:28:03;4.03;;;3.63;;
8413;SDS011;4244;48.684;9.028;2022-10-16T17:30:29;4.50;;;4.10;;
8413;SDS011;4244;48.684;9.028;2022-10-16T17:32:55;3.43;;;3.13;;
8413;SDS011;4244;48.684;9.028;2022-10-16T17:35:20;4.33;;;3.90;;
8413;SDS011;4244;48.684;9.028;2022-10-16T17:37:46;4.07;;;3.13;;
8413;SDS011;4244;48.684;9.028;2022-10-16T17:40:12;5.03;;;3.70;;
8413;SDS011;4244;48.684;9.028;2022-10-16T17:42:37;5.27;;;4.77;;
8413;SDS011;4244;48.684;9.028;2022-10-16T17:45:03;7.03;;;5.23;;
8413;SDS011;4244;48.684;9.028;2022-10-16T17:47:29;5.00;;;4.40;;
8413;SDS011;4244;48.684;9.028;2022-10-16T17:49:55;4.63;;;4.23;;
8413;SDS011;4244;48.684;9.028;2022-10-16T17:52:22;5.20;;;4.30;;
8413;SDS011;4244;48.684;9.028;2022-10-16T17:54:51;4.47;;;3.90;;